sensor_id;sensor_type;location;lat;lon;timestamp;pressure;altitude;pressure_sealevel;temperature;humidity
12203;BME280;6164;42.178;24.622;2023-12-28T00:01:32;100818.47;;;4.83;100.00
12203;BME280;6164;42.178;24.622;2023-12-28T00:03:58;100818.81;;;4.91;100.00
12203;BME280;6164;42.178;24.622;2023-12-28T00:06:26;100812.94;;;5.00;100.00
12203;BME280;6164;42.178;24.622;2023-12-28T00:08:52;100808.25;;;4.92;100.00
12203;BME280;6164;42.178;24.622;2023-12-28T00:11:19;100805.59;;;4.80;100.00
12203;BME280;6164;42.178;24.622;2023-12-28T00:13:46;100814.88;;;4.71;100.00
12203;BME280;6164;42.178;24.622;2023-12-28T00:16:12;100823.66;;;4.58;100.00
12203;BME280;6164;42.178;24.622;2023-12-28T00:18:39;100824.00;;;4.39;100.00
12203;BME280;6164;42.178;24.622;2023-12-28T00:21:05;100828.56;;;4.23;100.00
12203;BME280;6164;42.178;24.622;2023-12-28T00:23:33;100833.44;;;4.15;100.00
12203;BME280;6164;42.178;24.622;2023-12-28T00:25:59;100831.09;;;4.11;100.00
12203;BME280;6164;42.178;24.622;2023-12-28T00:28:26;100845.22;;;4.08;100.00
12203;BME280;6164;42.178;24.622;2023-12-28T00:30:52;100848.13;;;4.03;100.00
12203;BME280;6164;42.178;24.622;2023-12-28T00:33:19;100854.66;;;3.96;100.00
12203;BME280;6164;42.178;24.622;2023-12-28T00:35:45;100859.13;;;3.94;100.00
12203;BME280;6164;42.178;24.622;2023-12-28T00:38:12;100861.09;;;3.91;100.00
12203;BME280;6164;42.178;24.622;2023-12-28T00:40:39;100867.63;;;3.84;100.00
12203;BME280;6164;42.178;24.622;2023-12-28T00:43:06;100866.34;;;3.77;100.00
12203;BME280;6164;42.178;24.622;2023-12-28T00:45:33;100874.63;;;3.69;100.00
12203;BME280;6164;42.178;24.622;2023-12-28T00:47:59;100879.97;;;3.68;100.00
12203;BME280;6164;42.178;24.622;2023-12-28T00:50:26;100890.97;;;3.59;100.00
12203;BME280;6164;42.178;24.622;2023-12-28T00:52:56;100893.59;;;3.59;100.00
12203;BME280;6164;42.178;24.622;2023-12-28T00:55:23;100893.22;;;3.51;100.00
12203;BME280;6164;42.178;24.622;2023-12-28T00:57:51;100895.81;;;3.51;100.00
12203;BME280;6164;42.178;24.622;2023-12-28T01:00:18;100892.47;;;3.49;100.00
12203;BME280;6164;42.178;24.622;2023-12-28T01:02:44;100894.50;;;3.44;100.00
12203;BME280;6164;42.178;24.622;2023-12-28T01:05:12;100898.88;;;3.29;100.00
12203;BME280;6164;42.178;24.622;2023-12-28T01:07:38;100904.19;;;3.28;100.00
12203;BME280;6164;42.178;24.622;2023-12-28T01:10:05;100905.75;;;3.30;100.00
12203;BME280;6164;42.178;24.622;2023-12-28T01:12:31;100894.84;;;3.38;100.00
12203;BME280;6164;42.178;24.622;2023-12-28T01:14:59;100892.00;;;3.42;100.00
12203;BME280;6164;42.178;24.622;2023-12-28T01:17:26;100899.44;;;3.48;100.00
12203;BME280;6164;42.178;24.622;2023-12-28T01:19:52;100884.63;;;3.49;100.00
12203;BME280;6164;42.178;24.622;2023-12-28T01:22:19;100885.09;;;3.55;100.00
12203;BME280;6164;42.178;24.622;2023-12-28T01:24:46;100889.19;;;3.59;100.00
12203;BME280;6164;42.178;24.622;2023-12-28T01:27:14;100892.28;;;3.52;100.00
12203;BME280;6164;42.178;24.622;2023-12-28T01:29:41;100896.44;;;3.54;100.00
12203;BME280;6164;42.178;24.622;2023-12-28T01:32:08;100892.44;;;3.63;100.00
12203;BME280;6164;42.178;24.622;2023-12-28T01:34:35;100892.09;;;3.69;100.00
12203;BME280;6164;42.178;24.622;2023-12-28T01:37:01;100888.53;;;3.70;100.00
12203;BME280;6164;42.178;24.622;2023-12-28T01:39:28;100886.94;;;3.67;100.00
12203;BME280;6164;42.178;24.622;2023-12-28T01:41:55;100889.75;;;3.64;100.00
12203;BME280;6164;42.178;24.622;2023-12-28T01:44:21;100892.25;;;3.66;100.00
12203;BME280;6164;42.178;24.622;2023-12-28T01:46:48;100889.50;;;3.69;100.00
12203;BME280;6164;42.178;24.622;2023-12-28T01:49:16;100895.16;;;3.61;100.00
12203;BME280;6164;42.178;24.622;2023-12-28T01:51:43;100888.00;;;3.51;100.00
12203;BME280;6164;42.178;24.622;2023-12-28T01:54:11;100891.50;;;3.50;100.00
12203;BME280;6164;42.178;24.622;2023-12-28T01:56:37;100894.03;;;3.37;100.00
12203;BME280;6164;42.178;24.622;2023-12-28T01:59:04;100890.91;;;3.17;100.00
12203;BME280;6164;42.178;24.622;2023-12-28T02:01:31;100886.47;;;3.03;100.00
12203;BME280;6164;42.178;24.622;2023-12-28T02:04:00;100892.75;;;3.01;100.00
12203;BME280;6164;42.178;24.622;2023-12-28T02:06:29;100885.13;;;2.82;100.00
12203;BME280;6164;42.178;24.622;2023-12-28T02:08:55;100893.31;;;2.76;100.00
12203;BME280;6164;42.178;24.622;2023-12-28T02:11:22;100876.25;;;2.70;100.00
12203;BME280;6164;42.178;24.622;2023-12-28T02:13:48;100886.53;;;2.58;100.00
12203;BME280;6164;42.178;24.622;2023-12-28T02:16:15;100887.13;;;2.47;100.00
12203;BME280;6164;42.178;24.622;2023-12-28T02:18:43;100894.94;;;2.47;100.00
12203;BME280;6164;42.178;24.622;2023-12-28T02:21:10;100898.75;;;2.42;100.00
12203;BME280;6164;42.178;24.622;2023-12-28T02:23:39;100897.41;;;2.35;100.00
12203;BME280;6164;42.178;24.622;2023-12-28T02:26:13;100890.84;;;2.28;100.00
12203;BME280;6164;42.178;24.622;2023-12-28T02:28:39;100890.94;;;2.26;100.00
12203;BME280;6164;42.178;24.622;2023-12-28T02:31:06;100894.69;;;2.21;100.00
12203;BME280;6164;42.178;24.622;2023-12-28T02:33:35;100896.88;;;2.13;100.00
12203;BME280;6164;42.178;24.622;2023-12-28T02:36:04;100908.16;;;2.13;100.00
12203;BME280;6164;42.178;24.622;2023-12-28T02:38:35;100914.44;;;2.09;100.00
12203;BME280;6164;42.178;24.622;2023-12-28T02:41:02;100915.72;;;2.02;100.00
12203;BME280;6164;42.178;24.622;2023-12-28T02:43:31;100916.19;;;1.93;100.00
12203;BME280;6164;42.178;24.622;2023-12-28T02:45:58;100909.16;;;1.95;100.00
12203;BME280;6164;42.178;24.622;2023-12-28T02:48:24;100913.19;;;2.01;100.00
12203;BME280;6164;42.178;24.622;2023-12-28T02:50:51;100910.94;;;2.10;100.00
12203;BME280;6164;42.178;24.622;2023-12-28T02:53:18;100909.44;;;2.22;100.00
12203;BME280;6164;42.178;24.622;2023-12-28T02:55:44;100911.63;;;2.14;100.00
12203;BME280;6164;42.178;24.622;2023-12-28T02:58:10;100911.53;;;2.15;100.00
12203;BME280;6164;42.178;24.622;2023-12-28T03:00:38;100903.69;;;2.00;100.00
12203;BME280;6164;42.178;24.622;2023-12-28T03:03:05;100904.63;;;1.99;100.00
12203;BME280;6164;42.178;24.622;2023-12-28T03:05:31;100912.09;;;2.05;100.00
12203;BME280;6164;42.178;24.622;2023-12-28T03:07:58;100925.47;;;2.14;100.00
12203;BME280;6164;42.178;24.622;2023-12-28T03:10:24;100925.91;;;2.22;100.00
12203;BME280;6164;42.178;24.622;2023-12-28T03:12:51;100922.88;;;2.30;100.00
12203;BME280;6164;42.178;24.622;2023-12-28T03:15:17;100919.19;;;2.34;100.00
12203;BME280;6164;42.178;24.622;2023-12-28T03:17:45;100919.00;;;2.37;100.00
12203;BME280;6164;42.178;24.622;2023-12-28T03:20:12;100907.75;;;2.36;100.00
12203;BME280;6164;42.178;24.622;2023-12-28T03:22:38;100904.06;;;2.40;100.00
12203;BME280;6164;42.178;24.622;2023-12-28T03:25:06;100906.56;;;2.42;100.00
12203;BME280;6164;42.178;24.622;2023-12-28T03:27:32;100902.03;;;2.45;100.00
12203;BME280;6164;42.178;24.622;2023-12-28T03:29:59;100897.47;;;2.49;100.00
12203;BME280;6164;42.178;24.622;2023-12-28T03:32:25;100897.13;;;2.55;100.00
12203;BME280;6164;42.178;24.622;2023-12-28T03:34:53;100892.59;;;2.58;100.00
12203;BME280;6164;42.178;24.622;2023-12-28T03:37:19;100890.63;;;2.62;100.00
12203;BME280;6164;42.178;24.622;2023-12-28T03:39:46;100898.53;;;2.60;100.00
12203;BME280;6164;42.178;24.622;2023-12-28T03:42:13;100900.25;;;2.46;100.00
12203;BME280;6164;42.178;24.622;2023-12-28T03:44:39;100892.09;;;2.52;100.00
12203;BME280;6164;42.178;24.622;2023-12-28T03:47:06;100897.63;;;2.46;100.00
12203;BME280;6164;42.178;24.622;2023-12-28T03:49:32;100898.47;;;2.31;100.00
12203;BME280;6164;42.178;24.622;2023-12-28T03:52:00;100895.91;;;2.15;100.00
12203;BME280;6164;42.178;24.622;2023-12-28T03:54:27;100904.44;;;2.02;100.00
12203;BME280;6164;42.178;24.622;2023-12-28T03:56:53;100909.31;;;1.92;100.00
12203;BME280;6164;42.178;24.622;2023-12-28T03:59:19;100906.19;;;1.86;100.00
12203;BME280;6164;42.178;24.622;2023-12-28T04:01:46;100911.56;;;1.83;100.00
12203;BME280;6164;42.178;24.622;2023-12-28T04:04:12;100911.41;;;1.86;100.00
12203;BME280;6164;42.178;24.622;2023-12-28T04:06:39;100914.47;;;1.77;100.00
12203;BME280;6164;42.178;24.622;2023-12-28T04:09:08;100921.16;;;1.82;100.00
12203;BME280;6164;42.178;24.622;2023-12-28T04:11:34;100934.25;;;1.81;100.00
12203;BME280;6164;42.178;24.622;2023-12-28T04:14:01;100936.16;;;1.77;100.00
12203;BME280;6164;42.178;24.622;2023-12-28T04:16:27;100924.00;;;1.78;100.00
12203;BME280;6164;42.178;24.622;2023-12-28T04:18:54;100927.75;;;1.72;100.00
12203;BME280;6164;42.178;24.622;2023-12-28T04:21:21;100935.03;;;1.66;100.00
12203;BME280;6164;42.178;24.622;2023-12-28T04:23:47;100934.44;;;1.61;100.00
12203;BME280;6164;42.178;24.622;2023-12-28T04:26:17;100941.41;;;1.60;100.00
12203;BME280;6164;42.178;24.622;2023-12-28T04:28:44;100938.25;;;1.54;100.00
12203;BME280;6164;42.178;24.622;2023-12-28T04:31:10;100943.38;;;1.55;100.00
12203;BME280;6164;42.178;24.622;2023-12-28T04:33:36;100950.22;;;1.58;100.00
12203;BME280;6164;42.178;24.622;2023-12-28T04:36:03;100952.66;;;1.61;100.00
12203;BME280;6164;42.178;24.622;2023-12-28T04:38:30;100955.88;;;1.66;100.00
12203;BME280;6164;42.178;24.622;2023-12-28T04:40:57;100952.84;;;1.73;100.00
12203;BME280;6164;42.178;24.622;2023-12-28T04:43:24;100957.94;;;1.76;100.00
12203;BME280;6164;42.178;24.622;2023-12-28T04:45:51;100957.19;;;1.90;100.00
12203;BME280;6164;42.178;24.622;2023-12-28T04:48:18;100962.53;;;2.04;100.00
12203;BME280;6164;42.178;24.622;2023-12-28T04:50:46;100960.25;;;2.13;100.00
12203;BME280;6164;42.178;24.622;2023-12-28T04:53:12;100955.38;;;2.23;100.00
12203;BME280;6164;42.178;24.622;2023-12-28T04:55:39;100950.69;;;2.29;100.00
12203;BME280;6164;42.178;24.622;2023-12-28T04:58:05;100948.94;;;2.30;100.00
12203;BME280;6164;42.178;24.622;2023-12-28T05:00:33;100953.22;;;2.31;100.00
12203;BME280;6164;42.178;24.622;2023-12-28T05:03:00;100950.78;;;2.28;100.00
12203;BME280;6164;42.178;24.622;2023-12-28T05:05:26;100944.16;;;2.22;100.00
12203;BME280;6164;42.178;24.622;2023-12-28T05:07:53;100951.19;;;2.20;100.00
12203;BME280;6164;42.178;24.622;2023-12-28T05:10:19;100944.47;;;2.16;100.00
12203;BME280;6164;42.178;24.622;2023-12-28T05:12:46;100940.28;;;2.14;100.00
12203;BME280;6164;42.178;24.622;2023-12-28T05:15:12;100941.09;;;2.14;100.00
12203;BME280;6164;42.178;24.622;2023-12-28T05:17:40;100953.59;;;2.08;100.00
12203;BME280;6164;42.178;24.622;2023-12-28T05:20:08;100954.19;;;1.97;100.00
12203;BME280;6164;42.178;24.622;2023-12-28T05:22:35;100949.63;;;1.85;100.00
12203;BME280;6164;42.178;24.622;2023-12-28T05:25:02;100945.59;;;1.95;100.00
12203;BME280;6164;42.178;24.622;2023-12-28T05:27:28;100954.19;;;1.97;100.00
12203;BME280;6164;42.178;24.622;2023-12-28T05:29:55;100960.72;;;2.04;100.00
12203;BME280;6164;42.178;24.622;2023-12-28T05:32:21;100959.41;;;1.97;100.00
12203;BME280;6164;42.178;24.622;2023-12-28T05:34:49;100952.47;;;1.81;100.00
12203;BME280;6164;42.178;24.622;2023-12-28T05:37:15;100957.34;;;1.87;100.00
12203;BME280;6164;42.178;24.622;2023-12-28T05:39:42;100960.38;;;1.95;100.00
12203;BME280;6164;42.178;24.622;2023-12-28T05:42:08;100954.50;;;1.91;100.00
12203;BME280;6164;42.178;24.622;2023-12-28T05:44:35;100951.88;;;1.76;100.00
12203;BME280;6164;42.178;24.622;2023-12-28T05:47:01;100951.19;;;1.72;100.00
12203;BME280;6164;42.178;24.622;2023-12-28T05:49:28;100951.59;;;1.65;100.00
12203;BME280;6164;42.178;24.622;2023-12-28T05:51:57;100956.47;;;1.54;100.00
12203;BME280;6164;42.178;24.622;2023-12-28T05:54:23;100949.38;;;1.57;100.00
12203;BME280;6164;42.178;24.622;2023-12-28T05:56:51;100950.59;;;1.50;100.00
12203;BME280;6164;42.178;24.622;2023-12-28T05:59:17;100944.03;;;1.43;100.00
12203;BME280;6164;42.178;24.622;2023-12-28T06:01:44;100946.31;;;1.32;100.00
12203;BME280;6164;42.178;24.622;2023-12-28T06:04:12;100946.25;;;1.33;100.00
12203;BME280;6164;42.178;24.622;2023-12-28T06:06:38;100947.78;;;1.20;100.00
12203;BME280;6164;42.178;24.622;2023-12-28T06:09:06;100951.00;;;1.08;100.00
12203;BME280;6164;42.178;24.622;2023-12-28T06:11:33;100955.03;;;1.14;100.00
12203;BME280;6164;42.178;24.622;2023-12-28T06:13:59;100954.22;;;1.13;100.00
12203;BME280;6164;42.178;24.622;2023-12-28T06:16:26;100958.56;;;1.13;100.00
12203;BME280;6164;42.178;24.622;2023-12-28T06:18:56;100959.44;;;1.13;100.00
12203;BME280;6164;42.178;24.622;2023-12-28T06:21:22;100971.34;;;1.17;100.00
12203;BME280;6164;42.178;24.622;2023-12-28T06:23:49;100977.25;;;1.21;100.00
12203;BME280;6164;42.178;24.622;2023-12-28T06:26:17;100979.41;;;1.30;100.00
12203;BME280;6164;42.178;24.622;2023-12-28T06:28:43;100982.06;;;1.46;100.00
12203;BME280;6164;42.178;24.622;2023-12-28T06:31:10;100984.91;;;1.58;100.00
12203;BME280;6164;42.178;24.622;2023-12-28T06:33:36;100983.81;;;1.62;100.00
12203;BME280;6164;42.178;24.622;2023-12-28T06:36:07;100989.69;;;1.66;100.00
12203;BME280;6164;42.178;24.622;2023-12-28T06:38:34;100985.28;;;1.68;100.00
12203;BME280;6164;42.178;24.622;2023-12-28T06:41:00;100994.50;;;1.73;100.00
12203;BME280;6164;42.178;24.622;2023-12-28T06:43:28;100999.72;;;1.73;100.00
12203;BME280;6164;42.178;24.622;2023-12-28T06:45:54;100996.50;;;1.68;100.00
12203;BME280;6164;42.178;24.622;2023-12-28T06:48:21;101000.72;;;1.71;100.00
12203;BME280;6164;42.178;24.622;2023-12-28T06:50:47;100995.53;;;1.71;100.00
12203;BME280;6164;42.178;24.622;2023-12-28T06:53:14;100992.91;;;1.54;100.00
12203;BME280;6164;42.178;24.622;2023-12-28T06:55:40;100995.53;;;1.54;100.00
12203;BME280;6164;42.178;24.622;2023-12-28T06:58:07;100997.84;;;1.60;100.00
12203;BME280;6164;42.178;24.622;2023-12-28T07:00:34;100995.75;;;1.66;100.00
12203;BME280;6164;42.178;24.622;2023-12-28T07:03:01;101009.91;;;1.78;100.00
12203;BME280;6164;42.178;24.622;2023-12-28T07:05:27;101005.06;;;1.87;100.00
12203;BME280;6164;42.178;24.622;2023-12-28T07:07:54;101014.84;;;1.99;100.00
12203;BME280;6164;42.178;24.622;2023-12-28T07:10:20;101009.91;;;2.10;100.00
12203;BME280;6164;42.178;24.622;2023-12-28T07:12:47;101008.22;;;2.09;100.00
12203;BME280;6164;42.178;24.622;2023-12-28T07:15:13;101017.63;;;2.29;100.00
12203;BME280;6164;42.178;24.622;2023-12-28T07:17:41;101014.66;;;2.50;100.00
12203;BME280;6164;42.178;24.622;2023-12-28T07:20:08;101014.88;;;2.63;100.00
12203;BME280;6164;42.178;24.622;2023-12-28T07:22:36;101014.03;;;2.78;100.00
12203;BME280;6164;42.178;24.622;2023-12-28T07:25:03;101019.75;;;2.85;100.00
12203;BME280;6164;42.178;24.622;2023-12-28T07:27:29;101011.38;;;2.94;100.00
12203;BME280;6164;42.178;24.622;2023-12-28T07:29:56;101021.47;;;3.15;100.00
12203;BME280;6164;42.178;24.622;2023-12-28T07:32:22;101019.94;;;3.27;100.00
12203;BME280;6164;42.178;24.622;2023-12-28T07:34:52;101020.22;;;3.36;100.00
12203;BME280;6164;42.178;24.622;2023-12-28T07:37:19;101016.47;;;3.56;100.00
12203;BME280;6164;42.178;24.622;2023-12-28T07:39:45;101014.56;;;3.73;100.00
12203;BME280;6164;42.178;24.622;2023-12-28T07:42:12;101019.59;;;3.90;100.00
12203;BME280;6164;42.178;24.622;2023-12-28T07:44:39;101021.59;;;4.01;100.00
12203;BME280;6164;42.178;24.622;2023-12-28T07:47:05;101014.03;;;4.11;100.00
12203;BME280;6164;42.178;24.622;2023-12-28T07:49:32;101012.44;;;4.22;100.00
12203;BME280;6164;42.178;24.622;2023-12-28T07:52:00;101013.00;;;4.27;100.00
12203;BME280;6164;42.178;24.622;2023-12-28T07:54:26;101007.03;;;4.39;100.00
12203;BME280;6164;42.178;24.622;2023-12-28T07:56:53;101011.75;;;4.61;100.00
12203;BME280;6164;42.178;24.622;2023-12-28T07:59:19;101019.31;;;4.79;100.00
12203;BME280;6164;42.178;24.622;2023-12-28T08:01:46;101019.44;;;4.90;100.00
12203;BME280;6164;42.178;24.622;2023-12-28T08:04:12;101020.78;;;5.10;100.00
12203;BME280;6164;42.178;24.622;2023-12-28T08:06:39;101007.09;;;5.19;100.00
12203;BME280;6164;42.178;24.622;2023-12-28T08:09:07;101009.75;;;5.31;100.00
12203;BME280;6164;42.178;24.622;2023-12-28T08:11:33;101015.22;;;5.41;100.00
12203;BME280;6164;42.178;24.622;2023-12-28T08:14:00;101007.69;;;5.49;100.00
12203;BME280;6164;42.178;24.622;2023-12-28T08:16:26;101016.94;;;5.67;100.00
12203;BME280;6164;42.178;24.622;2023-12-28T08:18:53;101012.13;;;5.74;100.00
12203;BME280;6164;42.178;24.622;2023-12-28T08:21:19;101005.78;;;5.90;100.00
12203;BME280;6164;42.178;24.622;2023-12-28T08:23:46;101002.84;;;6.07;100.00
12203;BME280;6164;42.178;24.622;2023-12-28T08:26:14;101001.16;;;6.31;100.00
12203;BME280;6164;42.178;24.622;2023-12-28T08:28:40;100995.34;;;6.51;100.00
12203;BME280;6164;42.178;24.622;2023-12-28T08:31:07;100991.91;;;6.75;100.00
12203;BME280;6164;42.178;24.622;2023-12-28T08:33:34;100987.69;;;6.85;100.00
12203;BME280;6164;42.178;24.622;2023-12-28T08:36:02;100986.34;;;7.03;100.00
12203;BME280;6164;42.178;24.622;2023-12-28T08:38:29;100976.88;;;7.24;100.00
12203;BME280;6164;42.178;24.622;2023-12-28T08:40:55;100965.75;;;7.44;100.00
12203;BME280;6164;42.178;24.622;2023-12-28T08:43:23;100958.72;;;7.55;100.00
12203;BME280;6164;42.178;24.622;2023-12-28T08:46:07;100944.66;;;7.67;100.00
12203;BME280;6164;42.178;24.622;2023-12-28T08:48:33;100942.28;;;7.86;100.00
12203;BME280;6164;42.178;24.622;2023-12-28T08:51:00;100939.88;;;7.94;100.00
12203;BME280;6164;42.178;24.622;2023-12-28T08:53:26;100929.72;;;8.01;100.00
12203;BME280;6164;42.178;24.622;2023-12-28T08:55:53;100930.19;;;8.17;100.00
12203;BME280;6164;42.178;24.622;2023-12-28T08:58:19;100927.25;;;8.33;100.00
12203;BME280;6164;42.178;24.622;2023-12-28T09:00:47;100925.91;;;8.49;100.00
12203;BME280;6164;42.178;24.622;2023-12-28T09:03:14;100922.28;;;8.61;100.00
12203;BME280;6164;42.178;24.622;2023-12-28T09:05:40;100915.31;;;8.71;100.00
12203;BME280;6164;42.178;24.622;2023-12-28T09:08:07;100910.59;;;8.86;100.00
12203;BME280;6164;42.178;24.622;2023-12-28T09:10:34;100901.06;;;9.05;100.00
12203;BME280;6164;42.178;24.622;2023-12-28T09:13:00;100907.44;;;9.23;100.00
12203;BME280;6164;42.178;24.622;2023-12-28T09:15:26;100906.88;;;9.41;100.00
12203;BME280;6164;42.178;24.622;2023-12-28T09:17:54;100901.84;;;9.58;100.00
12203;BME280;6164;42.178;24.622;2023-12-28T09:20:21;100888.16;;;9.74;100.00
12203;BME280;6164;42.178;24.622;2023-12-28T09:22:47;100882.25;;;9.81;100.00
12203;BME280;6164;42.178;24.622;2023-12-28T09:25:18;100889.41;;;10.00;100.00
12203;BME280;6164;42.178;24.622;2023-12-28T09:27:45;100876.31;;;10.19;100.00
12203;BME280;6164;42.178;24.622;2023-12-28T09:30:11;100874.09;;;10.33;100.00
12203;BME280;6164;42.178;24.622;2023-12-28T09:32:38;100872.31;;;10.43;98.68
12203;BME280;6164;42.178;24.622;2023-12-28T09:35:06;100868.31;;;10.49;97.04
12203;BME280;6164;42.178;24.622;2023-12-28T09:37:32;100857.06;;;10.66;97.42
12203;BME280;6164;42.178;24.622;2023-12-28T09:39:59;100853.59;;;10.85;97.96
12203;BME280;6164;42.178;24.622;2023-12-28T09:42:26;100846.91;;;11.00;96.76
12203;BME280;6164;42.178;24.622;2023-12-28T09:44:55;100826.03;;;11.16;94.03
12203;BME280;6164;42.178;24.622;2023-12-28T09:47:22;100826.97;;;11.24;91.46
12203;BME280;6164;42.178;24.622;2023-12-28T09:49:49;100822.09;;;11.29;89.20
12203;BME280;6164;42.178;24.622;2023-12-28T09:52:16;100813.72;;;11.34;88.60
12203;BME280;6164;42.178;24.622;2023-12-28T09:54:43;100810.09;;;11.44;89.80
12203;BME280;6164;42.178;24.622;2023-12-28T09:57:09;100810.50;;;11.49;86.75
12203;BME280;6164;42.178;24.622;2023-12-28T09:59:36;100808.66;;;11.50;84.63
12203;BME280;6164;42.178;24.622;2023-12-28T10:02:04;100806.44;;;11.64;82.69
12203;BME280;6164;42.178;24.622;2023-12-28T10:04:31;100813.63;;;11.72;80.64
12203;BME280;6164;42.178;24.622;2023-12-28T10:06:57;100807.88;;;11.86;80.41
12203;BME280;6164;42.178;24.622;2023-12-28T10:09:25;100810.47;;;11.96;78.78
12203;BME280;6164;42.178;24.622;2023-12-28T10:11:53;100818.09;;;11.99;75.44
12203;BME280;6164;42.178;24.622;2023-12-28T10:14:19;100802.00;;;12.10;76.74
12203;BME280;6164;42.178;24.622;2023-12-28T10:16:47;100799.44;;;12.18;77.01
12203;BME280;6164;42.178;24.622;2023-12-28T10:19:13;100809.00;;;12.28;76.70
12203;BME280;6164;42.178;24.622;2023-12-28T10:21:40;100790.94;;;12.41;76.55
12203;BME280;6164;42.178;24.622;2023-12-28T10:24:06;100775.09;;;12.49;77.61
12203;BME280;6164;42.178;24.622;2023-12-28T10:26:33;100782.97;;;12.59;76.55
12203;BME280;6164;42.178;24.622;2023-12-28T10:29:01;100782.16;;;12.58;75.06
12203;BME280;6164;42.178;24.622;2023-12-28T10:31:28;100784.84;;;12.49;73.63
12203;BME280;6164;42.178;24.622;2023-12-28T10:33:57;100783.06;;;12.49;73.36
12203;BME280;6164;42.178;24.622;2023-12-28T10:36:24;100783.91;;;12.50;72.82
12203;BME280;6164;42.178;24.622;2023-12-28T10:38:51;100787.22;;;12.52;72.54
12203;BME280;6164;42.178;24.622;2023-12-28T10:41:17;100767.28;;;12.65;74.19
12203;BME280;6164;42.178;24.622;2023-12-28T10:43:48;100760.56;;;12.71;74.05
12203;BME280;6164;42.178;24.622;2023-12-28T10:46:20;100771.94;;;12.63;72.54
12203;BME280;6164;42.178;24.622;2023-12-28T10:48:48;100770.63;;;12.67;72.19
12203;BME280;6164;42.178;24.622;2023-12-28T10:51:16;100770.63;;;12.67;71.48
12203;BME280;6164;42.178;24.622;2023-12-28T10:53:45;100756.53;;;12.67;72.09
12203;BME280;6164;42.178;24.622;2023-12-28T10:56:17;100742.69;;;12.73;71.99
12203;BME280;6164;42.178;24.622;2023-12-28T10:58:48;100741.38;;;12.77;71.45
12203;BME280;6164;42.178;24.622;2023-12-28T11:01:17;100734.38;;;12.93;71.83
12203;BME280;6164;42.178;24.622;2023-12-28T11:03:48;100730.03;;;13.10;72.26
12203;BME280;6164;42.178;24.622;2023-12-28T11:06:17;100722.81;;;13.20;71.97
12203;BME280;6164;42.178;24.622;2023-12-28T11:08:44;100711.91;;;13.31;72.61
12203;BME280;6164;42.178;24.622;2023-12-28T11:11:18;100720.13;;;13.46;71.40
12203;BME280;6164;42.178;24.622;2023-12-28T11:13:45;100711.03;;;13.56;71.89
12203;BME280;6164;42.178;24.622;2023-12-28T11:16:14;100710.25;;;13.64;71.15
12203;BME280;6164;42.178;24.622;2023-12-28T11:18:39;100718.75;;;13.75;69.79
12203;BME280;6164;42.178;24.622;2023-12-28T11:21:06;100707.81;;;13.86;71.23
12203;BME280;6164;42.178;24.622;2023-12-28T11:23:33;100716.81;;;13.93;68.47
12203;BME280;6164;42.178;24.622;2023-12-28T11:26:00;100730.72;;;13.95;66.37
12203;BME280;6164;42.178;24.622;2023-12-28T11:28:27;100742.00;;;13.81;66.21
12203;BME280;6164;42.178;24.622;2023-12-28T11:30:53;100733.53;;;13.86;66.07
12203;BME280;6164;42.178;24.622;2023-12-28T11:33:21;100733.19;;;13.89;66.10
12203;BME280;6164;42.178;24.622;2023-12-28T11:35:48;100709.34;;;13.97;67.38
12203;BME280;6164;42.178;24.622;2023-12-28T11:38:15;100684.28;;;14.07;69.46
12203;BME280;6164;42.178;24.622;2023-12-28T11:40:42;100693.94;;;14.16;66.98
12203;BME280;6164;42.178;24.622;2023-12-28T11:43:15;100696.47;;;14.26;67.72
12203;BME280;6164;42.178;24.622;2023-12-28T11:45:46;100698.97;;;14.35;66.89
12203;BME280;6164;42.178;24.622;2023-12-28T11:48:23;100696.31;;;14.43;67.92
12203;BME280;6164;42.178;24.622;2023-12-28T11:50:50;100697.47;;;14.49;66.82
12203;BME280;6164;42.178;24.622;2023-12-28T11:53:17;100682.38;;;14.58;66.58
12203;BME280;6164;42.178;24.622;2023-12-28T11:55:44;100689.13;;;14.68;66.01
12203;BME280;6164;42.178;24.622;2023-12-28T11:58:11;100686.34;;;14.78;66.10
12203;BME280;6164;42.178;24.622;2023-12-28T12:00:38;100699.78;;;14.84;64.55
12203;BME280;6164;42.178;24.622;2023-12-28T12:03:05;100707.41;;;14.87;63.52
12203;BME280;6164;42.178;24.622;2023-12-28T12:05:34;100704.09;;;14.85;63.32
12203;BME280;6164;42.178;24.622;2023-12-28T12:08:01;100715.06;;;14.82;62.43
12203;BME280;6164;42.178;24.622;2023-12-28T12:10:27;100694.13;;;14.87;64.76
12203;BME280;6164;42.178;24.622;2023-12-28T12:12:54;100688.94;;;14.94;64.10
12203;BME280;6164;42.178;24.622;2023-12-28T12:15:20;100680.44;;;14.98;64.19
12203;BME280;6164;42.178;24.622;2023-12-28T12:17:47;100683.94;;;15.07;63.45
12203;BME280;6164;42.178;24.622;2023-12-28T12:20:14;100690.22;;;15.14;63.44
12203;BME280;6164;42.178;24.622;2023-12-28T12:22:42;100682.41;;;15.20;63.12
12203;BME280;6164;42.178;24.622;2023-12-28T12:25:08;100689.00;;;15.24;61.82
12203;BME280;6164;42.178;24.622;2023-12-28T12:27:36;100692.66;;;15.31;62.51
12203;BME280;6164;42.178;24.622;2023-12-28T12:30:03;100693.16;;;15.35;62.28
12203;BME280;6164;42.178;24.622;2023-12-28T12:32:29;100678.19;;;15.42;63.01
12203;BME280;6164;42.178;24.622;2023-12-28T12:34:56;100694.13;;;15.50;61.64
12203;BME280;6164;42.178;24.622;2023-12-28T12:37:23;100695.22;;;15.55;60.69
12203;BME280;6164;42.178;24.622;2023-12-28T12:39:51;100710.72;;;15.60;60.04
12203;BME280;6164;42.178;24.622;2023-12-28T12:42:17;100720.34;;;15.61;58.54
12203;BME280;6164;42.178;24.622;2023-12-28T12:44:44;100719.50;;;15.60;59.77
12203;BME280;6164;42.178;24.622;2023-12-28T12:47:12;100698.38;;;15.59;60.30
12203;BME280;6164;42.178;24.622;2023-12-28T12:49:39;100683.56;;;15.64;60.92